createdAt,value
2022-08-07T00:02:40.731Z,100031.81
2022-08-07T00:05:29.556Z,100025.78
2022-08-07T00:08:32.429Z,100017.94
2022-08-07T00:11:48.119Z,100024.34
2022-08-07T00:14:57.315Z,100023.84
2022-08-07T00:18:01.244Z,100018.47
2022-08-07T00:21:08.124Z,100022.66
2022-08-07T00:24:31.572Z,100022.19
2022-08-07T00:27:53.068Z,100026.87
2022-08-07T00:30:57.067Z,100026.66
2022-08-07T00:34:00.658Z,100030.75
2022-08-07T00:37:05.110Z,100028.53
2022-08-07T00:40:10.899Z,100024.53
2022-08-07T00:44:00.253Z,100020.25
2022-08-07T00:46:40.811Z,100028.13
2022-08-07T00:50:18.944Z,100019.84
2022-08-07T00:53:06.709Z,100032.38
2022-08-07T00:56:15.620Z,100027.72
2022-08-07T00:59:20.344Z,100021.59
2022-08-07T01:02:40.413Z,100028.44
2022-08-07T01:05:43.215Z,100030.69
2022-08-07T01:08:58.515Z,100024.25
2022-08-07T01:12:28.168Z,100023.78
2022-08-07T01:16:00.925Z,100020.81
2022-08-07T01:18:52.294Z,100027.78
2022-08-07T01:21:55.740Z,100026.09
2022-08-07T01:25:00.118Z,100021.22
2022-08-07T01:28:03.673Z,100024.06
2022-08-07T01:31:06.703Z,100014.69
2022-08-07T01:34:12.122Z,100023.03
2022-08-07T01:37:17.500Z,100019.16
2022-08-07T01:40:23.465Z,100019.06
2022-08-07T01:43:34.664Z,100014.97
2022-08-07T01:46:42.398Z,100019.75
2022-08-07T01:49:46.426Z,100024.47
2022-08-07T01:52:58.593Z,100022.16
2022-08-07T01:56:03.171Z,100036.13
2022-08-07T01:59:19.174Z,100027.00
2022-08-07T02:03:12.138Z,100040.00
2022-08-07T02:06:08.817Z,100034.91
2022-08-07T02:09:37.467Z,100041.53
2022-08-07T02:12:59.506Z,100040.47
2022-08-07T02:16:07.562Z,100049.84
2022-08-07T02:20:05.311Z,100045.47
2022-08-07T02:22:43.867Z,100035.41
2022-08-07T02:26:31.941Z,100037.34
2022-08-07T02:29:13.748Z,100033.44
2022-08-07T02:32:23.532Z,100041.75
2022-08-07T02:36:29.844Z,100036.44
2022-08-07T02:39:16.218Z,100042.38
2022-08-07T02:42:30.369Z,100038.09
2022-08-07T02:46:01.649Z,100041.25
2022-08-07T02:49:03.324Z,100031.88
2022-08-07T02:52:12.967Z,100031.16
2022-08-07T02:55:28.470Z,100029.34
2022-08-07T02:58:48.249Z,100034.91
2022-08-07T03:01:52.077Z,100039.63
2022-08-07T03:04:59.900Z,100051.16
2022-08-07T03:08:10.079Z,100042.00
2022-08-07T03:11:15.143Z,100043.81
2022-08-07T03:14:19.042Z,100043.56
2022-08-07T03:17:26.081Z,100044.22
2022-08-07T03:20:30.310Z,100044.81
2022-08-07T03:24:19.376Z,100049.44
2022-08-07T03:27:04.388Z,100040.56
2022-08-07T03:30:10.810Z,100043.25
2022-08-07T03:33:17.293Z,100043.81
2022-08-07T03:36:26.592Z,100037.63
2022-08-07T03:40:00.045Z,100044.31
2022-08-07T03:42:57.326Z,100045.72
2022-08-07T03:46:03.194Z,100043.63
2022-08-07T03:49:08.629Z,100042.59
2022-08-07T03:52:22.326Z,100053.84
2022-08-07T03:55:52.887Z,100049.25
2022-08-07T03:59:09.605Z,100056.97
2022-08-07T04:02:15.563Z,100060.94
2022-08-07T04:05:24.039Z,100060.91
2022-08-07T04:08:45.365Z,100062.09
2022-08-07T04:12:26.431Z,100062.53
2022-08-07T04:15:15.212Z,100065.22
2022-08-07T04:18:58.078Z,100076.19
2022-08-07T04:21:59.603Z,100080.41
2022-08-07T04:25:08.911Z,100082.41
2022-08-07T04:28:16.190Z,100079.19
2022-08-07T04:31:38.880Z,100088.75
2022-08-07T04:34:50.630Z,100079.72
2022-08-07T04:38:03.083Z,100077.87
2022-08-07T04:41:09.520Z,100086.19
2022-08-07T04:44:23.071Z,100086.66
2022-08-07T04:48:01.600Z,100097.09
2022-08-07T04:51:05.246Z,100090.94
2022-08-07T04:54:30.949Z,100091.66
2022-08-07T04:58:11.440Z,100090.91
2022-08-07T05:01:50.612Z,100094.37
2022-08-07T05:05:52.195Z,100090.59
2022-08-07T05:09:00.744Z,100091.78
2022-08-07T05:12:08.515Z,100090.84
2022-08-07T05:15:21.648Z,100087.59
2022-08-07T05:18:29.597Z,100090.12
2022-08-07T05:22:00.495Z,100097.44
2022-08-07T05:24:59.613Z,100097.41
2022-08-07T05:28:20.639Z,100103.81
2022-08-07T05:31:38.997Z,100106.69
2022-08-07T05:34:43.976Z,100115.37
2022-08-07T05:37:47.924Z,100117.31
2022-08-07T05:41:14.114Z,100115.31
2022-08-07T05:44:29.456Z,100118.63
2022-08-07T05:48:00.150Z,100121.16
2022-08-07T05:51:01.285Z,100116.50
2022-08-07T05:54:12.816Z,100119.91
2022-08-07T05:57:37.743Z,100118.06
2022-08-07T06:00:42.030Z,100117.19
2022-08-07T06:03:58.498Z,100127.34
2022-08-07T06:07:06.142Z,100122.34
2022-08-07T06:10:11.277Z,100123.13
2022-08-07T06:13:20.921Z,100118.72
2022-08-07T06:16:50.271Z,100119.38
2022-08-07T06:20:04.100Z,100126.69
2022-08-07T06:23:24.778Z,100125.72
2022-08-07T06:26:32.355Z,100121.34
2022-08-07T06:29:38.843Z,100121.53
2022-08-07T06:32:42.496Z,100124.19
2022-08-07T06:36:06.852Z,100126.56
2022-08-07T06:40:13.042Z,100139.72
2022-08-07T06:42:37.624Z,100143.94
2022-08-07T06:45:44.314Z,100139.06
2022-08-07T08:23:08.138Z,100133.84
2022-08-07T08:26:31.319Z,100128.53
2022-08-07T08:30:06.021Z,100136.63
2022-08-07T08:33:16.048Z,100131.81
2022-08-07T08:36:25.594Z,100122.19
2022-08-07T08:39:39.314Z,100120.09
2022-08-07T08:43:02.026Z,100119.38
2022-08-07T08:46:09.102Z,100122.13
2022-08-07T08:49:33.186Z,100112.88
2022-08-07T08:52:58.305Z,100118.87
2022-08-07T08:56:24.708Z,100121.03
2022-08-07T08:59:54.632Z,100119.63
2022-08-07T09:03:07.583Z,100127.09
2022-08-07T09:06:21.402Z,100129.56
2022-08-07T09:09:57.192Z,100118.06
2022-08-07T09:13:36.991Z,100117.28
2022-08-07T09:16:47.956Z,100115.00
2022-08-07T09:20:37.152Z,100118.03
2022-08-07T09:30:01.828Z,100107.16
2022-08-07T09:31:50.385Z,100110.91
2022-08-07T09:36:02.710Z,100101.13
2022-08-07T09:38:43.817Z,100100.06
2022-08-07T09:42:17.251Z,100106.75
2022-08-07T09:47:24.851Z,100105.34
2022-08-07T09:50:02.147Z,100097.75
2022-08-07T09:53:20.266Z,100096.88
2022-08-07T10:00:15.058Z,100087.13
2022-08-07T10:12:21.506Z,100087.41
2022-08-07T10:15:51.101Z,100076.47
2022-08-07T10:19:37.568Z,100071.63
2022-08-07T10:23:10.240Z,100065.25
2022-08-07T10:30:19.669Z,100057.41
2022-08-07T10:34:06.284Z,100050.44
2022-08-07T10:37:48.696Z,100053.03
2022-08-07T10:41:56.792Z,100050.37
2022-08-07T10:45:45.219Z,100045.81
2022-08-07T10:52:48.646Z,100039.50
2022-08-07T11:00:36.921Z,100023.16
2022-08-07T11:12:05.084Z,100010.00
2022-08-07T11:15:54.470Z,100014.84
2022-08-07T11:23:52.405Z,100010.50
2022-08-07T11:31:45.081Z,100012.03
2022-08-07T11:42:46.055Z,100001.31
2022-08-07T11:46:08.605Z,100001.09
2022-08-07T11:50:11.428Z,100000.59
2022-08-07T11:53:43.293Z,99997.88
2022-08-07T11:58:00.505Z,99995.47
2022-08-07T12:01:05.217Z,99980.13
2022-08-07T12:04:32.984Z,99971.72
2022-08-07T12:07:53.409Z,99976.91
2022-08-07T12:11:20.037Z,99982.62
2022-08-07T12:14:27.770Z,99975.03
2022-08-07T12:17:38.958Z,99980.03
2022-08-07T12:20:49.239Z,99976.66
2022-08-07T12:24:36.921Z,99972.31
2022-08-07T12:28:09.859Z,99970.78
2022-08-07T12:31:06.247Z,99970.25
2022-08-07T12:34:12.712Z,99955.69
2022-08-07T12:37:23.343Z,99968.50
2022-08-07T12:40:49.986Z,99959.31
2022-08-07T12:44:03.977Z,99960.84
2022-08-07T12:47:27.177Z,99945.06
2022-08-07T12:50:50.950Z,99945.94
2022-08-07T12:54:24.033Z,99950.00
2022-08-07T12:57:23.412Z,99948.34
2022-08-07T13:00:50.213Z,99941.38
2022-08-07T13:04:04.565Z,99947.59
2022-08-07T13:08:13.348Z,99948.03
2022-08-07T13:11:00.898Z,99947.72
2022-08-07T13:14:09.214Z,99945.56
2022-08-07T13:17:21.306Z,99940.31
2022-08-07T13:20:34.061Z,99941.84
2022-08-07T13:24:01.624Z,99936.81
2022-08-07T13:28:10.741Z,99936.31
2022-08-07T13:31:23.207Z,99941.22
2022-08-07T13:34:50.949Z,99931.28
2022-08-07T13:38:09.217Z,99935.06
2022-08-07T13:41:27.970Z,99931.16
2022-08-07T13:44:37.036Z,99920.34
2022-08-07T13:48:05.826Z,99915.63
2022-08-07T13:51:28.320Z,99916.38
2022-08-07T13:54:36.842Z,99910.16
2022-08-07T13:57:59.114Z,99901.59
2022-08-07T14:01:13.259Z,99890.06
2022-08-07T14:04:21.455Z,99892.25
2022-08-07T14:11:53.796Z,99888.13
2022-08-07T14:24:02.071Z,99881.63
2022-08-07T14:28:20.982Z,99880.88
2022-08-07T14:35:03.899Z,99861.31
2022-08-07T14:38:09.330Z,99863.13
2022-08-07T14:41:33.911Z,99863.22
2022-08-07T14:44:59.745Z,99859.97
2022-08-07T14:48:04.453Z,99853.56
2022-08-07T15:07:24.164Z,99855.03
2022-08-07T15:18:48.344Z,99843.44
2022-08-07T15:22:04.688Z,99837.56
2022-08-07T15:25:18.408Z,99841.87
2022-08-07T15:28:34.604Z,99836.59
2022-08-07T15:32:01.517Z,99832.34
2022-08-07T15:35:07.237Z,99825.19
2022-08-07T15:38:30.094Z,99826.72
2022-08-07T15:42:42.475Z,99825.41
2022-08-07T15:45:09.469Z,99814.62
2022-08-07T15:48:20.286Z,99813.38
2022-08-07T15:54:49.048Z,99815.88
2022-08-07T15:58:00.302Z,99811.19
2022-08-07T16:01:06.654Z,99807.34
2022-08-07T16:04:15.067Z,99807.62
2022-08-07T16:08:29.233Z,99801.97
2022-08-07T16:10:47.222Z,99806.75
2022-08-07T16:14:04.025Z,99806.53
2022-08-07T16:18:02.190Z,99806.03
2022-08-07T16:22:02.474Z,99807.44
2022-08-07T16:24:34.255Z,99811.09
2022-08-07T16:27:57.229Z,99812.84
2022-08-07T16:31:51.753Z,99808.66
2022-08-07T16:35:50.724Z,99817.87
2022-08-07T16:39:01.332Z,99805.84
2022-08-07T16:42:30.251Z,99802.53
2022-08-07T16:54:27.792Z,99804.09
2022-08-07T17:25:14.199Z,99798.84
2022-08-07T17:28:31.281Z,99808.03
2022-08-07T17:31:34.932Z,99802.97
2022-08-07T17:35:49.719Z,99813.44
2022-08-07T17:39:10.488Z,99811.44
2022-08-07T17:42:31.914Z,99817.47
2022-08-07T17:45:40.384Z,99819.06
2022-08-07T17:48:58.524Z,99830.25
2022-08-07T17:52:14.481Z,99829.88
2022-08-07T17:56:01.172Z,99831.50
2022-08-07T17:59:56.930Z,99839.88
2022-08-07T18:03:25.679Z,99843.03
2022-08-07T18:06:39.143Z,99851.78
2022-08-07T18:10:06.431Z,99852.50
2022-08-07T18:13:15.329Z,99855.09
2022-08-07T18:16:33.977Z,99856.19
2022-08-07T18:21:07.068Z,99860.66
2022-08-07T18:23:35.220Z,99865.56
2022-08-07T18:26:40.889Z,99869.56
2022-08-07T18:30:32.412Z,99869.44
2022-08-07T18:33:39.302Z,99870.19
2022-08-07T18:38:56.751Z,99871.09
2022-08-07T18:41:09.122Z,99882.41
2022-08-07T18:50:05.101Z,99884.34
2022-08-07T18:52:34.873Z,99878.94
2022-08-07T18:56:02.886Z,99886.50
2022-08-07T18:59:47.650Z,99875.78
2022-08-07T19:02:58.145Z,99888.44
2022-08-07T19:06:16.488Z,99891.53
2022-08-07T19:09:54.701Z,99898.22
2022-08-07T19:12:53.751Z,99895.81
2022-08-07T19:17:06.465Z,99909.03
2022-08-07T19:20:02.380Z,99901.78
2022-08-07T19:23:19.411Z,99909.81
2022-08-07T19:28:28.493Z,99906.66
2022-08-07T19:31:00.217Z,99915.63
2022-08-07T19:33:40.031Z,99915.94
2022-08-07T19:36:51.913Z,99915.22
2022-08-07T19:40:01.839Z,99917.47
2022-08-07T19:43:21.832Z,99920.88
2022-08-07T19:46:40.483Z,99927.19
2022-08-07T19:50:30.072Z,99930.59
2022-08-07T19:54:44.271Z,99929.25
2022-08-07T19:57:51.830Z,99932.50
2022-08-07T20:00:29.166Z,99941.00
2022-08-07T20:03:36.408Z,99943.34
2022-08-07T20:06:42.813Z,99945.00
2022-08-07T20:10:35.351Z,99944.62
2022-08-07T20:13:23.588Z,99947.69
2022-08-07T20:16:34.773Z,99940.00
2022-08-07T20:19:47.930Z,99942.00
2022-08-07T20:23:23.328Z,99934.78
2022-08-07T20:26:44.712Z,99949.56
2022-08-07T20:30:00.356Z,99955.75
2022-08-07T20:33:09.172Z,99961.16
2022-08-07T20:36:30.631Z,99955.87
2022-08-07T20:40:02.829Z,99958.00
2022-08-07T20:42:59.236Z,99960.16
2022-08-07T20:46:28.046Z,99962.28
2022-08-07T20:49:58.445Z,99960.22
2022-08-07T20:52:52.753Z,99967.28
2022-08-07T20:55:58.578Z,99962.09
2022-08-07T20:59:05.340Z,99963.50
2022-08-07T21:02:53.912Z,99956.13
2022-08-07T21:06:12.405Z,99951.78
2022-08-07T21:09:52.418Z,99949.06
2022-08-07T21:13:01.192Z,99943.03
2022-08-07T21:16:05.480Z,99954.44
2022-08-07T21:19:10.339Z,99954.87
2022-08-07T21:22:19.419Z,99969.28
2022-08-07T21:26:01.348Z,99975.28
2022-08-07T21:29:18.333Z,99978.03
2022-08-07T21:32:48.576Z,99982.56
2022-08-07T21:36:12.015Z,99982.38
2022-08-07T21:39:54.789Z,99976.81
2022-08-07T21:43:23.016Z,99976.69
2022-08-07T21:46:33.397Z,99984.81
2022-08-07T21:50:04.590Z,99994.09
2022-08-07T21:53:17.734Z,100000.13
2022-08-07T21:56:39.747Z,99998.81
2022-08-07T22:00:06.164Z,100010.69
2022-08-07T22:03:17.182Z,100013.87
2022-08-07T22:06:30.143Z,100016.00
2022-08-07T22:09:54.138Z,100024.72
2022-08-07T22:13:01.006Z,100027.09
2022-08-07T22:16:39.587Z,100027.84
2022-08-07T22:20:22.894Z,100014.31
2022-08-07T22:23:33.341Z,100012.44
2022-08-07T22:26:58.879Z,100013.81
2022-08-07T22:30:20.406Z,100018.66
2022-08-07T22:33:52.620Z,100017.97
2022-08-07T22:37:18.490Z,100032.59
2022-08-07T22:40:27.790Z,100029.16
2022-08-07T22:43:37.287Z,100040.87
2022-08-07T22:47:06.378Z,100036.47
2022-08-07T22:50:43.857Z,100035.91
2022-08-07T22:54:07.451Z,100036.22
2022-08-07T22:57:40.931Z,100040.41
2022-08-07T23:01:06.185Z,100028.13
2022-08-07T23:06:07.397Z,100025.81
2022-08-07T23:08:30.554Z,100027.91
2022-08-07T23:11:46.300Z,100027.91
2022-08-07T23:16:04.280Z,100031.78
2022-08-07T23:19:47.715Z,100044.09
2022-08-07T23:24:04.097Z,100045.69
2022-08-07T23:26:59.465Z,100041.66
2022-08-07T23:30:37.309Z,100035.53
2022-08-07T23:34:36.301Z,100032.78
2022-08-07T23:38:01.111Z,100022.34
2022-08-07T23:41:47.521Z,100026.41
2022-08-07T23:46:01.303Z,100033.37
2022-08-07T23:49:16.695Z,100040.87
2022-08-07T23:53:00.394Z,100052.91
2022-08-07T23:56:04.138Z,100042.09
